M I D A S
Marine Information and Data Acquisition System
Tripno 1141 of the Zeeleeuw from 2006-07-26 06:50:28 to 2006-07-26 14:25:48
Back to CruiseResearch ActivitiesStationsMapUnderway DataData graphs

EquipmentUnitsComments
TimeDGPSUTC
LatitudeDGPSDM.mWGS84
LongitudeDGPSDM.mWGS84
SpeedMeteo Stationm/sRelative wind speed
DirectionMeteo StationdegRelative wind direction
TemperatureMeteo Stationdeg CelciusAir temperature
PressureMeteo StationPaAtmospheric pressure
HumidityMeteo Station%Relative humidity
Missing or incorrect values are displayed as -999
Metereological data collected by the RV Zeeleeuw from 2006-07-26 06:41:01 to 2006-07-26 14:37:47
                                                                                    Next 1000 lines
Time Latitude Longitude Speed Direction Temperature Pressure Humidity
2006-07-26 06:41:11 51°13.602 2°56.094 -999 -999 -999 -999 -999
2006-07-26 06:41:16 51°13.603 2°56.092 -999 -999 -999 -999 -999
2006-07-26 06:41:21 51°13.603 2°56.09 -999 -999 -999 -999 -999
2006-07-26 06:41:26 51°13.604 2°56.086 -999 -999 -999 -999 -999
2006-07-26 06:41:31 51°13.605 2°56.082 -999 -999 -999 -999 -999
2006-07-26 06:41:36 51°13.606 2°56.077 -999 -999 -999 -999 -999
2006-07-26 06:41:41 51°13.607 2°56.072 -999 -999 -999 -999 -999
2006-07-26 06:41:46 51°13.608 2°56.067 -999 -999 -999 -999 -999
2006-07-26 06:41:51 51°13.609 2°56.061 -999 -999 -999 -999 -999
2006-07-26 06:41:56 51°13.61 2°56.055 -999 -999 -999 -999 -999
2006-07-26 06:42:01 51°13.611 2°56.049 -999 -999 -999 -999 -999
2006-07-26 06:42:06 51°13.612 2°56.042 -999 -999 -999 -999 -999
2006-07-26 06:42:11 51°13.614 2°56.036 -999 -999 -999 -999 -999
2006-07-26 06:42:16 51°13.615 2°56.028 -999 -999 -999 -999 -999
2006-07-26 06:42:21 51°13.616 2°56.021 -999 -999 -999 -999 -999
2006-07-26 06:42:26 51°13.618 2°56.013 -999 -999 -999 -999 -999
2006-07-26 06:42:31 51°13.619 2°56.005 -999 -999 -999 -999 -999
2006-07-26 06:42:36 51°13.62 2°55.998 -999 -999 -999 -999 -999
2006-07-26 06:42:41 51°13.622 2°55.99 -999 -999 -999 -999 -999
2006-07-26 06:42:46 51°13.623 2°55.982 -999 -999 -999 -999 -999
2006-07-26 06:42:51 51°13.625 2°55.975 -999 -999 -999 -999 -999
2006-07-26 06:42:56 51°13.627 2°55.968 -999 -999 -999 -999 -999
2006-07-26 06:43:01 51°13.628 2°55.96 -999 -999 -999 -999 -999
2006-07-26 06:43:06 51°13.63 2°55.953 -999 -999 -999 -999 -999
2006-07-26 06:43:11 51°13.632 2°55.946 -999 -999 -999 -999 -999
2006-07-26 06:43:16 51°13.634 2°55.939 -999 -999 -999 -999 -999
2006-07-26 06:43:21 51°13.636 2°55.932 -999 -999 -999 -999 -999
2006-07-26 06:43:26 51°13.638 2°55.925 -999 -999 -999 -999 -999
2006-07-26 06:43:31 51°13.641 2°55.918 -999 -999 -999 -999 -999
2006-07-26 06:43:36 51°13.643 2°55.911 -999 -999 -999 -999 -999
2006-07-26 06:43:41 51°13.645 2°55.904 -999 -999 -999 -999 -999
2006-07-26 06:43:46 51°13.648 2°55.897 -999 -999 -999 -999 -999
2006-07-26 06:43:51 51°13.65 2°55.89 -999 -999 -999 -999 -999
2006-07-26 06:43:56 51°13.653 2°55.884 -999 -999 -999 -999 -999
2006-07-26 06:44:01 51°13.656 2°55.877 -999 -999 -999 -999 -999
2006-07-26 06:44:06 51°13.659 2°55.87 -999 -999 -999 -999 -999
2006-07-26 06:44:11 51°13.661 2°55.863 -999 -999 -999 -999 -999
2006-07-26 06:44:16 51°13.664 2°55.856 -999 -999 -999 -999 -999
2006-07-26 06:44:21 51°13.667 2°55.85 -999 -999 -999 -999 -999
2006-07-26 06:44:26 51°13.67 2°55.843 -999 -999 -999 -999 -999
2006-07-26 06:44:31 51°13.673 2°55.837 -999 -999 -999 -999 -999
2006-07-26 06:44:36 51°13.675 2°55.83 -999 -999 -999 -999 -999
2006-07-26 06:44:41 51°13.679 2°55.823 -999 -999 -999 -999 -999
2006-07-26 06:44:46 51°13.682 2°55.816 -999 -999 -999 -999 -999
2006-07-26 06:44:51 51°13.685 2°55.809 -999 -999 -999 -999 -999
2006-07-26 06:44:56 51°13.687 2°55.802 -999 -999 -999 -999 -999
2006-07-26 06:45:01 51°13.69 2°55.795 -999 -999 -999 -999 -999
2006-07-26 06:45:06 51°13.693 2°55.788 -999 -999 -999 -999 -999
2006-07-26 06:45:11 51°13.695 2°55.782 -999 -999 -999 -999 -999
2006-07-26 06:45:16 51°13.698 2°55.776 -999 -999 -999 -999 -999
2006-07-26 06:45:21 51°13.7 2°55.77 -999 -999 -999 -999 -999
2006-07-26 06:45:26 51°13.702 2°55.765 -999 -999 -999 -999 -999
2006-07-26 06:45:31 51°13.704 2°55.76 -999 -999 -999 -999 -999
2006-07-26 06:45:36 51°13.706 2°55.755 -999 -999 -999 -999 -999
2006-07-26 06:45:41 51°13.707 2°55.751 -999 -999 -999 -999 -999
2006-07-26 06:45:46 51°13.709 2°55.748 -999 -999 -999 -999 -999
2006-07-26 06:45:51 51°13.71 2°55.745 -999 -999 -999 -999 -999
2006-07-26 06:45:56 51°13.71 2°55.743 -999 -999 -999 -999 -999
2006-07-26 06:46:01 51°13.711 2°55.741 -999 -999 -999 -999 -999
2006-07-26 06:46:06 51°13.712 2°55.74 -999 -999 -999 -999 -999
2006-07-26 06:46:11 51°13.712 2°55.74 -999 -999 -999 -999 -999
2006-07-26 06:46:16 51°13.713 2°55.74 -999 -999 -999 -999 -999
2006-07-26 06:46:21 51°13.713 2°55.741 -999 -999 -999 -999 -999
2006-07-26 06:46:26 51°13.713 2°55.742 -999 -999 -999 -999 -999
2006-07-26 06:46:31 51°13.714 2°55.743 -999 -999 -999 -999 -999
2006-07-26 06:46:36 51°13.715 2°55.745 -999 -999 -999 -999 -999
2006-07-26 06:46:41 51°13.715 2°55.747 -999 -999 -999 -999 -999
2006-07-26 06:46:46 51°13.716 2°55.749 -999 -999 -999 -999 -999
2006-07-26 06:46:51 51°13.717 2°55.752 -999 -999 -999 -999 -999
2006-07-26 06:46:56 51°13.718 2°55.753 -999 -999 -999 -999 -999
2006-07-26 06:47:01 51°13.719 2°55.754 -999 -999 -999 -999 -999
2006-07-26 06:47:06 51°13.72 2°55.755 -999 -999 -999 -999 -999
2006-07-26 06:47:11 51°13.72 2°55.754 -999 -999 -999 -999 -999
2006-07-26 06:47:16 51°13.72 2°55.753 -999 -999 -999 -999 -999
2006-07-26 06:47:21 51°13.719 2°55.751 -999 -999 -999 -999 -999
2006-07-26 06:47:26 51°13.718 2°55.748 -999 -999 -999 -999 -999
2006-07-26 06:47:31 51°13.717 2°55.745 -999 -999 -999 -999 -999
2006-07-26 06:47:36 51°13.716 2°55.742 -999 -999 -999 -999 -999
2006-07-26 06:47:41 51°13.714 2°55.739 -999 -999 -999 -999 -999
2006-07-26 06:47:46 51°13.713 2°55.736 -999 -999 -999 -999 -999
2006-07-26 06:47:51 51°13.712 2°55.733 -999 -999 -999 -999 -999
2006-07-26 06:47:56 51°13.711 2°55.732 -999 -999 -999 -999 -999
2006-07-26 06:48:01 51°13.711 2°55.73 -999 -999 -999 -999 -999
2006-07-26 06:48:06 51°13.711 2°55.729 -999 -999 -999 -999 -999
2006-07-26 06:48:11 51°13.712 2°55.729 -999 -999 -999 -999 -999
2006-07-26 06:48:16 51°13.713 2°55.728 -999 -999 -999 -999 -999
2006-07-26 06:48:21 51°13.714 2°55.728 -999 -999 -999 -999 -999
2006-07-26 06:48:26 51°13.716 2°55.728 -999 -999 -999 -999 -999
2006-07-26 06:48:31 51°13.718 2°55.728 -999 -999 -999 -999 -999
2006-07-26 06:48:36 51°13.721 2°55.727 -999 -999 -999 -999 -999
2006-07-26 06:48:41 51°13.723 2°55.725 -999 -999 -999 -999 -999
2006-07-26 06:48:46 51°13.726 2°55.723 -999 -999 -999 -999 -999
2006-07-26 06:48:51 51°13.73 2°55.721 -999 -999 -999 -999 -999
2006-07-26 06:48:56 51°13.733 2°55.718 -999 -999 -999 -999 -999
2006-07-26 06:49:01 51°13.737 2°55.714 -999 -999 -999 -999 -999
2006-07-26 06:49:06 51°13.741 2°55.711 -999 -999 -999 -999 -999
2006-07-26 06:49:11 51°13.746 2°55.706 -999 -999 -999 -999 -999
2006-07-26 06:49:16 51°13.751 2°55.701 -999 -999 -999 -999 -999
2006-07-26 06:49:21 51°13.757 2°55.696 -999 -999 -999 -999 -999
2006-07-26 06:49:26 51°13.763 2°55.69 -999 -999 -999 -999 -999
2006-07-26 06:49:31 51°13.77 2°55.684 -999 -999 -999 -999 -999
2006-07-26 06:49:36 51°13.778 2°55.678 -999 -999 -999 -999 -999
2006-07-26 06:49:41 51°13.785 2°55.671 -999 -999 -999 -999 -999
2006-07-26 06:49:46 51°13.794 2°55.664 -999 -999 -999 -999 -999
2006-07-26 06:49:51 51°13.803 2°55.656 -999 -999 -999 -999 -999
2006-07-26 06:49:56 51°13.812 2°55.649 -999 -999 -999 -999 -999
2006-07-26 06:50:01 51°13.822 2°55.641 -999 -999 -999 -999 -999
2006-07-26 06:50:06 51°13.832 2°55.634 -999 -999 -999 -999 -999
2006-07-26 06:50:11 51°13.843 2°55.627 -999 -999 -999 -999 -999
2006-07-26 06:50:16 51°13.854 2°55.62 -999 -999 -999 -999 -999
2006-07-26 06:50:21 51°13.865 2°55.611 -999 -999 -999 -999 -999
2006-07-26 06:50:26 51°13.876 2°55.603 -999 -999 -999 -999 -999
2006-07-26 06:50:31 51°13.887 2°55.595 -999 -999 -999 -999 -999
2006-07-26 06:50:36 51°13.898 2°55.587 -999 -999 -999 -999 -999
2006-07-26 06:50:41 51°13.909 2°55.579 -999 -999 -999 -999 -999
2006-07-26 06:50:46 51°13.921 2°55.57 -999 -999 -999 -999 -999
2006-07-26 06:50:51 51°13.932 2°55.562 -999 -999 -999 -999 -999
2006-07-26 06:50:56 51°13.944 2°55.553 -999 -999 -999 -999 -999
2006-07-26 06:51:01 51°13.956 2°55.545 -999 -999 -999 -999 -999
2006-07-26 06:51:06 51°13.967 2°55.536 -999 -999 -999 -999 -999
2006-07-26 06:51:11 51°13.979 2°55.528 -999 -999 -999 -999 -999
2006-07-26 06:51:16 51°13.99 2°55.52 -999 -999 -999 -999 -999
2006-07-26 06:51:21 51°14.001 2°55.513 -999 -999 -999 -999 -999
2006-07-26 06:51:26 51°14.012 2°55.506 -999 -999 -999 -999 -999
2006-07-26 06:51:31 51°14.022 2°55.499 -999 -999 -999 -999 -999
2006-07-26 06:51:36 51°14.032 2°55.492 -999 -999 -999 -999 -999
2006-07-26 06:51:41 51°14.042 2°55.485 -999 -999 -999 -999 -999
2006-07-26 06:51:46 51°14.052 2°55.478 -999 -999 -999 -999 -999
2006-07-26 06:51:51 51°14.061 2°55.47 -999 -999 -999 -999 -999
2006-07-26 06:51:56 51°14.071 2°55.463 -999 -999 -999 -999 -999
2006-07-26 06:52:01 51°14.08 2°55.456 -999 -999 -999 -999 -999
2006-07-26 06:52:06 51°14.09 2°55.449 -999 -999 -999 -999 -999
2006-07-26 06:52:11 51°14.099 2°55.442 -999 -999 -999 -999 -999
2006-07-26 06:52:16 51°14.108 2°55.434 -999 -999 -999 -999 -999
2006-07-26 06:52:21 51°14.117 2°55.427 -999 -999 -999 -999 -999
2006-07-26 06:52:26 51°14.126 2°55.42 -999 -999 -999 -999 -999
2006-07-26 06:52:31 51°14.136 2°55.412 -999 -999 -999 -999 -999
2006-07-26 06:52:36 51°14.145 2°55.405 -999 -999 -999 -999 -999
2006-07-26 06:52:41 51°14.154 2°55.397 -999 -999 -999 -999 -999
2006-07-26 06:52:46 51°14.163 2°55.388 -999 -999 -999 -999 -999
2006-07-26 06:52:51 51°14.171 2°55.38 -999 -999 -999 -999 -999
2006-07-26 06:52:56 51°14.18 2°55.372 -999 -999 -999 -999 -999
2006-07-26 06:53:01 51°14.189 2°55.363 -999 -999 -999 -999 -999
2006-07-26 06:53:06 51°14.198 2°55.354 -999 -999 -999 -999 -999
2006-07-26 06:53:11 51°14.206 2°55.345 -999 -999 -999 -999 -999
2006-07-26 06:53:16 51°14.215 2°55.335 -999 -999 -999 -999 -999
2006-07-26 06:53:21 51°14.223 2°55.325 -999 -999 -999 -999 -999
2006-07-26 06:53:26 51°14.231 2°55.314 -999 -999 -999 -999 -999
2006-07-26 06:53:31 51°14.239 2°55.304 -999 -999 -999 -999 -999
2006-07-26 06:53:36 51°14.247 2°55.293 -999 -999 -999 -999 -999
2006-07-26 06:53:41 51°14.255 2°55.282 -999 -999 -999 -999 -999
2006-07-26 06:53:46 51°14.262 2°55.27 -999 -999 -999 -999 -999
2006-07-26 06:53:51 51°14.269 2°55.259 -999 -999 -999 -999 -999
2006-07-26 06:53:56 51°14.277 2°55.247 -999 -999 -999 -999 -999
2006-07-26 06:54:01 51°14.284 2°55.235 -999 -999 -999 -999 -999
2006-07-26 06:54:06 51°14.291 2°55.223 -999 -999 -999 -999 -999
2006-07-26 06:54:11 51°14.298 2°55.21 -999 -999 -999 -999 -999
2006-07-26 06:54:16 51°14.305 2°55.198 -999 -999 -999 -999 -999
2006-07-26 06:54:21 51°14.312 2°55.185 -999 -999 -999 -999 -999
2006-07-26 06:54:26 51°14.319 2°55.173 -999 -999 -999 -999 -999
2006-07-26 06:54:31 51°14.325 2°55.16 -999 -999 -999 -999 -999
2006-07-26 06:54:36 51°14.332 2°55.147 -999 -999 -999 -999 -999
2006-07-26 06:54:41 51°14.339 2°55.134 -999 -999 -999 -999 -999
2006-07-26 06:54:46 51°14.345 2°55.121 -999 -999 -999 -999 -999
2006-07-26 06:54:51 51°14.352 2°55.108 -999 -999 -999 -999 -999
2006-07-26 06:54:56 51°14.359 2°55.095 -999 -999 -999 -999 -999
2006-07-26 06:55:01 51°14.366 2°55.082 -999 -999 -999 -999 -999
2006-07-26 06:55:06 51°14.373 2°55.069 -999 -999 -999 -999 -999
2006-07-26 06:55:11 51°14.381 2°55.055 -999 -999 -999 -999 -999
2006-07-26 06:55:16 51°14.389 2°55.04 -999 -999 -999 -999 -999
2006-07-26 06:55:21 51°14.398 2°55.024 -999 -999 -999 -999 -999
2006-07-26 06:55:26 51°14.407 2°55.008 -999 -999 -999 -999 -999
2006-07-26 06:55:31 51°14.417 2°54.991 -999 -999 -999 -999 -999
2006-07-26 06:55:36 51°14.427 2°54.974 -999 -999 -999 -999 -999
2006-07-26 06:55:41 51°14.437 2°54.956 -999 -999 -999 -999 -999
2006-07-26 06:55:46 51°14.448 2°54.938 -999 -999 -999 -999 -999
2006-07-26 06:55:51 51°14.459 2°54.92 -999 -999 -999 -999 -999
2006-07-26 06:55:56 51°14.469 2°54.9 -999 -999 -999 -999 -999
2006-07-26 06:56:01 51°14.481 2°54.881 -999 -999 -999 -999 -999
2006-07-26 06:56:06 51°14.493 2°54.863 -999 -999 -999 -999 -999
2006-07-26 06:56:11 51°14.505 2°54.846 -999 -999 -999 -999 -999
2006-07-26 06:56:16 51°14.518 2°54.829 -999 -999 -999 -999 -999
2006-07-26 06:56:21 51°14.531 2°54.813 -999 -999 -999 -999 -999
2006-07-26 06:56:26 51°14.545 2°54.797 -999 -999 -999 -999 -999
2006-07-26 06:56:31 51°14.559 2°54.782 -999 -999 -999 -999 -999
2006-07-26 06:56:36 51°14.573 2°54.767 -999 -999 -999 -999 -999
2006-07-26 06:56:41 51°14.588 2°54.753 -999 -999 -999 -999 -999
2006-07-26 06:56:46 51°14.602 2°54.739 -999 -999 -999 -999 -999
2006-07-26 06:56:51 51°14.616 2°54.724 -999 -999 -999 -999 -999
2006-07-26 06:56:56 51°14.63 2°54.709 -999 -999 -999 -999 -999
2006-07-26 06:57:01 51°14.644 2°54.694 -999 -999 -999 -999 -999
2006-07-26 06:57:06 51°14.658 2°54.678 -999 -999 -999 -999 -999
2006-07-26 06:57:11 51°14.672 2°54.663 -999 -999 -999 -999 -999
2006-07-26 06:57:16 51°14.686 2°54.647 -999 -999 -999 -999 -999
2006-07-26 06:57:21 51°14.7 2°54.632 -999 -999 -999 -999 -999
2006-07-26 06:57:26 51°14.714 2°54.617 -999 -999 -999 -999 -999
2006-07-26 06:57:31 51°14.728 2°54.602 -999 -999 -999 -999 -999
2006-07-26 06:57:36 51°14.743 2°54.588 -999 -999 -999 -999 -999
2006-07-26 06:57:41 51°14.757 2°54.573 -999 -999 -999 -999 -999
2006-07-26 06:57:46 51°14.771 2°54.559 -999 -999 -999 -999 -999
2006-07-26 06:57:51 51°14.785 2°54.544 -999 -999 -999 -999 -999
2006-07-26 06:57:56 51°14.8 2°54.529 -999 -999 -999 -999 -999
2006-07-26 06:58:01 51°14.814 2°54.514 -999 -999 -999 -999 -999
2006-07-26 06:58:06 51°14.828 2°54.499 -999 -999 -999 -999 -999
2006-07-26 06:58:11 51°14.842 2°54.484 -999 -999 -999 -999 -999
2006-07-26 06:58:16 51°14.856 2°54.469 -999 -999 -999 -999 -999
2006-07-26 06:58:21 51°14.87 2°54.454 -999 -999 -999 -999 -999
2006-07-26 06:58:26 51°14.884 2°54.439 -999 -999 -999 -999 -999
2006-07-26 06:58:31 51°14.898 2°54.424 -999 -999 -999 -999 -999
2006-07-26 06:58:36 51°14.912 2°54.41 -999 -999 -999 -999 -999
2006-07-26 06:58:41 51°14.927 2°54.395 -999 -999 -999 -999 -999
2006-07-26 06:58:46 51°14.941 2°54.38 -999 -999 -999 -999 -999
2006-07-26 06:58:51 51°14.955 2°54.366 -999 -999 -999 -999 -999
2006-07-26 06:58:56 51°14.968 2°54.351 -999 -999 -999 -999 -999
2006-07-26 06:59:01 51°14.982 2°54.336 -999 -999 -999 -999 -999
2006-07-26 06:59:06 51°14.996 2°54.32 -999 -999 -999 -999 -999
2006-07-26 06:59:11 51°15.009 2°54.305 -999 -999 -999 -999 -999
2006-07-26 06:59:16 51°15.023 2°54.289 -999 -999 -999 -999 -999
2006-07-26 06:59:21 51°15.037 2°54.274 -999 -999 -999 -999 -999
2006-07-26 06:59:26 51°15.05 2°54.258 -999 -999 -999 -999 -999
2006-07-26 06:59:31 51°15.064 2°54.242 -999 -999 -999 -999 -999
2006-07-26 06:59:36 51°15.077 2°54.226 -999 -999 -999 -999 -999
2006-07-26 06:59:41 51°15.091 2°54.21 -999 -999 -999 -999 -999
2006-07-26 06:59:46 51°15.105 2°54.194 -999 -999 -999 -999 -999
2006-07-26 06:59:51 51°15.118 2°54.178 -999 -999 -999 -999 -999
2006-07-26 06:59:56 51°15.132 2°54.163 -999 -999 -999 -999 -999
2006-07-26 07:00:01 51°15.146 2°54.147 -999 -999 -999 -999 -999
2006-07-26 07:00:06 51°15.16 2°54.132 -999 -999 -999 -999 -999
2006-07-26 07:00:11 51°15.174 2°54.116 -999 -999 -999 -999 -999
2006-07-26 07:00:16 51°15.188 2°54.101 -999 -999 -999 -999 -999
2006-07-26 07:00:21 51°15.202 2°54.085 -999 -999 -999 -999 -999
2006-07-26 07:00:26 51°15.216 2°54.069 -999 -999 -999 -999 -999
2006-07-26 07:00:31 51°15.23 2°54.052 -999 -999 -999 -999 -999
2006-07-26 07:00:36 51°15.244 2°54.036 -999 -999 -999 -999 -999
2006-07-26 07:00:41 51°15.257 2°54.019 -999 -999 -999 -999 -999
2006-07-26 07:00:46 51°15.271 2°54.003 -999 -999 -999 -999 -999
2006-07-26 07:00:51 51°15.285 2°53.987 -999 -999 -999 -999 -999
2006-07-26 07:00:56 51°15.299 2°53.971 -999 -999 -999 -999 -999
2006-07-26 07:01:01 51°15.314 2°53.955 -999 -999 -999 -999 -999
2006-07-26 07:01:06 51°15.328 2°53.94 -999 -999 -999 -999 -999
2006-07-26 07:01:11 51°15.343 2°53.927 -999 -999 -999 -999 -999
2006-07-26 07:01:16 51°15.358 2°53.914 -999 -999 -999 -999 -999
2006-07-26 07:01:21 51°15.373 2°53.902 -999 -999 -999 -999 -999
2006-07-26 07:01:26 51°15.388 2°53.891 -999 -999 -999 -999 -999
2006-07-26 07:01:31 51°15.403 2°53.88 -999 -999 -999 -999 -999
2006-07-26 07:01:36 51°15.419 2°53.869 -999 -999 -999 -999 -999
2006-07-26 07:01:41 51°15.434 2°53.859 -999 -999 -999 -999 -999
2006-07-26 07:01:46 51°15.45 2°53.848 -999 -999 -999 -999 -999
2006-07-26 07:01:51 51°15.465 2°53.837 -999 -999 -999 -999 -999
2006-07-26 07:01:56 51°15.48 2°53.825 -999 -999 -999 -999 -999
2006-07-26 07:02:01 51°15.495 2°53.814 -999 -999 -999 -999 -999
2006-07-26 07:02:06 51°15.51 2°53.802 -999 -999 -999 -999 -999
2006-07-26 07:02:11 51°15.525 2°53.79 -999 -999 -999 -999 -999
2006-07-26 07:02:16 51°15.541 2°53.778 -999 -999 -999 -999 -999
2006-07-26 07:02:21 51°15.556 2°53.767 -999 -999 -999 -999 -999
2006-07-26 07:02:26 51°15.571 2°53.755 -999 -999 -999 -999 -999
2006-07-26 07:02:31 51°15.586 2°53.744 -999 -999 -999 -999 -999
2006-07-26 07:02:36 51°15.602 2°53.733 -999 -999 -999 -999 -999
2006-07-26 07:02:41 51°15.617 2°53.721 -999 -999 -999 -999 -999
2006-07-26 07:02:46 51°15.632 2°53.71 -999 -999 -999 -999 -999
2006-07-26 07:02:51 51°15.648 2°53.699 -999 -999 -999 -999 -999
2006-07-26 07:02:56 51°15.663 2°53.688 -999 -999 -999 -999 -999
2006-07-26 07:03:01 51°15.678 2°53.676 -999 -999 -999 -999 -999
2006-07-26 07:03:06 51°15.693 2°53.665 -999 -999 -999 -999 -999
2006-07-26 07:03:11 51°15.708 2°53.653 -999 -999 -999 -999 -999
2006-07-26 07:03:16 51°15.723 2°53.64 -999 -999 -999 -999 -999
2006-07-26 07:03:21 51°15.738 2°53.628 -999 -999 -999 -999 -999
2006-07-26 07:03:26 51°15.753 2°53.616 -999 -999 -999 -999 -999
2006-07-26 07:03:31 51°15.769 2°53.604 -999 -999 -999 -999 -999
2006-07-26 07:03:36 51°15.784 2°53.593 -999 -999 -999 -999 -999
2006-07-26 07:03:41 51°15.799 2°53.581 -999 -999 -999 -999 -999
2006-07-26 07:03:46 51°15.815 2°53.57 -999 -999 -999 -999 -999
2006-07-26 07:03:51 51°15.83 2°53.56 -999 -999 -999 -999 -999
2006-07-26 07:03:56 51°15.845 2°53.55 -999 -999 -999 -999 -999
2006-07-26 07:04:01 51°15.861 2°53.541 -999 -999 -999 -999 -999
2006-07-26 07:04:06 51°15.876 2°53.532 -999 -999 -999 -999 -999
2006-07-26 07:04:11 51°15.892 2°53.523 -999 -999 -999 -999 -999
2006-07-26 07:04:16 51°15.908 2°53.514 -999 -999 -999 -999 -999
2006-07-26 07:04:21 51°15.924 2°53.505 -999 -999 -999 -999 -999
2006-07-26 07:04:26 51°15.939 2°53.496 -999 -999 -999 -999 -999
2006-07-26 07:04:31 51°15.955 2°53.487 -999 -999 -999 -999 -999
2006-07-26 07:04:36 51°15.971 2°53.477 -999 -999 -999 -999 -999
2006-07-26 07:04:41 51°15.986 2°53.468 -999 -999 -999 -999 -999
2006-07-26 07:04:46 51°16.002 2°53.458 -999 -999 -999 -999 -999
2006-07-26 07:04:51 51°16.018 2°53.449 -999 -999 -999 -999 -999
2006-07-26 07:04:56 51°16.033 2°53.439 -999 -999 -999 -999 -999
2006-07-26 07:05:01 51°16.049 2°53.43 -999 -999 -999 -999 -999
2006-07-26 07:05:06 51°16.065 2°53.42 -999 -999 -999 -999 -999
2006-07-26 07:05:11 51°16.08 2°53.411 -999 -999 -999 -999 -999
2006-07-26 07:05:16 51°16.096 2°53.402 -999 -999 -999 -999 -999
2006-07-26 07:05:21 51°16.112 2°53.392 -999 -999 -999 -999 -999
2006-07-26 07:05:26 51°16.127 2°53.383 -999 -999 -999 -999 -999
2006-07-26 07:05:31 51°16.143 2°53.373 -999 -999 -999 -999 -999
2006-07-26 07:05:36 51°16.159 2°53.364 -999 -999 -999 -999 -999
2006-07-26 07:05:41 51°16.174 2°53.354 -999 -999 -999 -999 -999
2006-07-26 07:05:46 51°16.19 2°53.344 -999 -999 -999 -999 -999
2006-07-26 07:05:51 51°16.205 2°53.334 -999 -999 -999 -999 -999
2006-07-26 07:05:56 51°16.221 2°53.324 -999 -999 -999 -999 -999
2006-07-26 07:06:01 51°16.236 2°53.314 -999 -999 -999 -999 -999
2006-07-26 07:06:06 51°16.252 2°53.304 -999 -999 -999 -999 -999
2006-07-26 07:06:11 51°16.268 2°53.294 -999 -999 -999 -999 -999
2006-07-26 07:06:16 51°16.283 2°53.285 -999 -999 -999 -999 -999
2006-07-26 07:06:21 51°16.299 2°53.275 -999 -999 -999 -999 -999
2006-07-26 07:06:26 51°16.315 2°53.266 -999 -999 -999 -999 -999
2006-07-26 07:06:31 51°16.33 2°53.256 -999 -999 -999 -999 -999
2006-07-26 07:06:36 51°16.346 2°53.247 -999 -999 -999 -999 -999
2006-07-26 07:06:41 51°16.361 2°53.237 -999 -999 -999 -999 -999
2006-07-26 07:06:46 51°16.377 2°53.227 -999 -999 -999 -999 -999
2006-07-26 07:06:51 51°16.393 2°53.218 -999 -999 -999 -999 -999
2006-07-26 07:06:56 51°16.408 2°53.209 -999 -999 -999 -999 -999
2006-07-26 07:07:01 51°16.424 2°53.199 -999 -999 -999 -999 -999
2006-07-26 07:07:06 51°16.44 2°53.19 -999 -999 -999 -999 -999
2006-07-26 07:07:11 51°16.455 2°53.181 -999 -999 -999 -999 -999
2006-07-26 07:07:16 51°16.471 2°53.171 -999 -999 -999 -999 -999
2006-07-26 07:07:21 51°16.486 2°53.161 -999 -999 -999 -999 -999
2006-07-26 07:07:26 51°16.502 2°53.15 -999 -999 -999 -999 -999
2006-07-26 07:07:31 51°16.517 2°53.14 -999 -999 -999 -999 -999
2006-07-26 07:07:36 51°16.533 2°53.13 -999 -999 -999 -999 -999
2006-07-26 07:07:41 51°16.548 2°53.12 -999 -999 -999 -999 -999
2006-07-26 07:07:46 51°16.564 2°53.109 -999 -999 -999 -999 -999
2006-07-26 07:07:51 51°16.578 2°53.097 -999 -999 -999 -999 -999
2006-07-26 07:07:56 51°16.593 2°53.082 -999 -999 -999 -999 -999
2006-07-26 07:08:01 51°16.606 2°53.066 -999 -999 -999 -999 -999
2006-07-26 07:08:06 51°16.619 2°53.048 -999 -999 -999 -999 -999
2006-07-26 07:08:11 51°16.631 2°53.029 -999 -999 -999 -999 -999
2006-07-26 07:08:16 51°16.643 2°53.01 -999 -999 -999 -999 -999
2006-07-26 07:08:19 51°16.65 2°52.998 -999 -999 -999 -999 -999
2006-07-26 07:08:23 51°16.658 2°52.98 -999 -999 -999 -999 -999
2006-07-26 07:08:26 51°16.664 2°52.967 -999 -999 -999 -999 -999
2006-07-26 07:08:32 51°16.676 2°52.939 -999 -999 -999 -999 -999
2006-07-26 07:08:37 51°16.684 2°52.915 -999 -999 -999 -999 -999
2006-07-26 07:08:42 51°16.692 2°52.891 -999 -999 -999 -999 -999
2006-07-26 07:08:48 51°16.7 2°52.86 -999 -999 -999 -999 -999
2006-07-26 07:08:52 51°16.705 2°52.839 -999 -999 -999 -999 -999
2006-07-26 07:08:57 51°16.711 2°52.812 -999 -999 -999 -999 -999
2006-07-26 07:09:02 51°16.715 2°52.785 -999 -999 -999 -999 -999
2006-07-26 07:09:07 51°16.719 2°52.758 -999 -999 -999 -999 -999
2006-07-26 07:09:12 51°16.723 2°52.731 -999 -999 -999 -999 -999
2006-07-26 07:09:16 51°16.725 2°52.709 -999 -999 -999 -999 -999
2006-07-26 07:09:22 51°16.728 2°52.679 -999 -999 -999 -999 -999
2006-07-26 07:09:27 51°16.73 2°52.655 -999 -999 -999 -999 -999
2006-07-26 07:09:32 51°16.731 2°52.634 -999 -999 -999 -999 -999
2006-07-26 07:09:37 51°16.731 2°52.613 -999 -999 -999 -999 -999
2006-07-26 07:09:42 51°16.73 2°52.595 -999 -999 -999 -999 -999
2006-07-26 07:09:47 51°16.728 2°52.577 -999 -999 -999 -999 -999
2006-07-26 07:09:52 51°16.726 2°52.561 -999 -999 -999 -999 -999
2006-07-26 07:09:57 51°16.724 2°52.547 -999 -999 -999 -999 -999
2006-07-26 07:10:02 51°16.721 2°52.533 -999 -999 -999 -999 -999
2006-07-26 07:10:07 51°16.719 2°52.52 -999 -999 -999 -999 -999
2006-07-26 07:10:12 51°16.717 2°52.508 -999 -999 -999 -999 -999
2006-07-26 07:10:17 51°16.715 2°52.496 -999 -999 -999 -999 -999
2006-07-26 07:10:22 51°16.713 2°52.485 -999 -999 -999 -999 -999
2006-07-26 07:10:27 51°16.712 2°52.474 -999 -999 -999 -999 -999
2006-07-26 07:10:32 51°16.711 2°52.464 -999 -999 -999 -999 -999
2006-07-26 07:10:37 51°16.71 2°52.455 -999 -999 -999 -999 -999
2006-07-26 07:10:42 51°16.709 2°52.446 -999 -999 -999 -999 -999
2006-07-26 07:10:47 51°16.708 2°52.437 -999 -999 -999 -999 -999
2006-07-26 07:10:52 51°16.708 2°52.428 -999 -999 -999 -999 -999
2006-07-26 07:10:57 51°16.707 2°52.42 -999 -999 -999 -999 -999
2006-07-26 07:11:02 51°16.707 2°52.412 -999 -999 -999 -999 -999
2006-07-26 07:11:07 51°16.707 2°52.404 -999 -999 -999 -999 -999
2006-07-26 07:11:12 51°16.707 2°52.396 -999 -999 -999 -999 -999
2006-07-26 07:11:17 51°16.707 2°52.389 -999 -999 -999 -999 -999
2006-07-26 07:11:22 51°16.706 2°52.382 -999 -999 -999 -999 -999
2006-07-26 07:11:27 51°16.706 2°52.375 -999 -999 -999 -999 -999
2006-07-26 07:11:32 51°16.706 2°52.368 -999 -999 -999 -999 -999
2006-07-26 07:11:36 51°16.706 2°52.362 -999 -999 -999 -999 -999
2006-07-26 07:11:42 51°16.706 2°52.354 -999 -999 -999 -999 -999
2006-07-26 07:11:47 51°16.706 2°52.348 -999 -999 -999 -999 -999
2006-07-26 07:11:52 51°16.706 2°52.342 -999 -999 -999 -999 -999
2006-07-26 07:11:58 51°16.706 2°52.335 -999 -999 -999 -999 -999
2006-07-26 07:12:02 51°16.707 2°52.33 -999 -999 -999 -999 -999
2006-07-26 07:12:07 51°16.707 2°52.324 -999 -999 -999 -999 -999
2006-07-26 07:12:12 51°16.707 2°52.318 -999 -999 -999 -999 -999
2006-07-26 07:12:16 51°16.707 2°52.314 -999 -999 -999 -999 -999
2006-07-26 07:12:22 51°16.707 2°52.307 -999 -999 -999 -999 -999
2006-07-26 07:12:26 51°16.708 2°52.302 -999 -999 -999 -999 -999
2006-07-26 07:12:32 51°16.709 2°52.295 -999 -999 -999 -999 -999
2006-07-26 07:12:37 51°16.709 2°52.288 -999 -999 -999 -999 -999
2006-07-26 07:12:42 51°16.71 2°52.282 -999 -999 -999 -999 -999
2006-07-26 07:12:47 51°16.711 2°52.275 -999 -999 -999 -999 -999
2006-07-26 07:12:52 51°16.712 2°52.268 -999 -999 -999 -999 -999
2006-07-26 07:12:57 51°16.714 2°52.261 -999 -999 -999 -999 -999
2006-07-26 07:13:02 51°16.715 2°52.254 -999 -999 -999 -999 -999
2006-07-26 07:13:07 51°16.716 2°52.247 -999 -999 -999 -999 -999
2006-07-26 07:13:12 51°16.718 2°52.24 -999 -999 -999 -999 -999
2006-07-26 07:13:17 51°16.72 2°52.233 -999 -999 -999 -999 -999
2006-07-26 07:13:22 51°16.721 2°52.226 -999 -999 -999 -999 -999
2006-07-26 07:13:27 51°16.723 2°52.218 -999 -999 -999 -999 -999
2006-07-26 07:13:32 51°16.725 2°52.211 -999 -999 -999 -999 -999
2006-07-26 07:13:37 51°16.727 2°52.204 -999 -999 -999 -999 -999
2006-07-26 07:13:42 51°16.729 2°52.197 -999 -999 -999 -999 -999
2006-07-26 07:13:47 51°16.731 2°52.19 -999 -999 -999 -999 -999
2006-07-26 07:13:52 51°16.733 2°52.183 -999 -999 -999 -999 -999
2006-07-26 07:13:57 51°16.735 2°52.177 -999 -999 -999 -999 -999
2006-07-26 07:14:01 51°16.737 2°52.172 -999 -999 -999 -999 -999
2006-07-26 07:14:07 51°16.739 2°52.164 -999 -999 -999 -999 -999
2006-07-26 07:14:12 51°16.741 2°52.158 -999 -999 -999 -999 -999
2006-07-26 07:14:17 51°16.743 2°52.152 -999 -999 -999 -999 -999
2006-07-26 07:14:22 51°16.746 2°52.147 -999 -999 -999 -999 -999
2006-07-26 07:14:27 51°16.748 2°52.142 -999 -999 -999 -999 -999
2006-07-26 07:14:32 51°16.751 2°52.137 -999 -999 -999 -999 -999
2006-07-26 07:14:37 51°16.753 2°52.132 -999 -999 -999 -999 -999
2006-07-26 07:14:42 51°16.755 2°52.127 -999 -999 -999 -999 -999
2006-07-26 07:14:47 51°16.758 2°52.122 -999 -999 -999 -999 -999
2006-07-26 07:14:52 51°16.76 2°52.118 -999 -999 -999 -999 -999
2006-07-26 07:14:57 51°16.763 2°52.114 -999 -999 -999 -999 -999
2006-07-26 07:15:02 51°16.765 2°52.11 -999 -999 -999 -999 -999
2006-07-26 07:15:07 51°16.768 2°52.106 -999 -999 -999 -999 -999
2006-07-26 07:15:12 51°16.77 2°52.103 -999 -999 -999 -999 -999
2006-07-26 07:15:17 51°16.773 2°52.1 -999 -999 -999 -999 -999
2006-07-26 07:15:22 51°16.775 2°52.096 -999 -999 -999 -999 -999
2006-07-26 07:15:25 51°16.777 2°52.095 -999 -999 -999 -999 -999
2006-07-26 07:15:32 51°16.78 2°52.091 -999 -999 -999 -999 -999
2006-07-26 07:15:37 51°16.783 2°52.089 -999 -999 -999 -999 -999
2006-07-26 07:15:42 51°16.785 2°52.087 -999 -999 -999 -999 -999
2006-07-26 07:15:47 51°16.788 2°52.085 -999 -999 -999 -999 -999
2006-07-26 07:15:52 51°16.791 2°52.084 -999 -999 -999 -999 -999
2006-07-26 07:15:57 51°16.793 2°52.083 -999 -999 -999 -999 -999
2006-07-26 07:16:02 51°16.796 2°52.083 -999 -999 -999 -999 -999
2006-07-26 07:16:07 51°16.798 2°52.082 -999 -999 -999 -999 -999
2006-07-26 07:16:12 51°16.801 2°52.082 -999 -999 -999 -999 -999
2006-07-26 07:16:17 51°16.803 2°52.083 -999 -999 -999 -999 -999
2006-07-26 07:16:22 51°16.806 2°52.083 -999 -999 -999 -999 -999
2006-07-26 07:16:26 51°16.808 2°52.084 -999 -999 -999 -999 -999
2006-07-26 07:16:32 51°16.81 2°52.085 -999 -999 -999 -999 -999
2006-07-26 07:16:37 51°16.812 2°52.086 -999 -999 -999 -999 -999
2006-07-26 07:16:42 51°16.814 2°52.088 -999 -999 -999 -999 -999
2006-07-26 07:16:47 51°16.816 2°52.091 -999 -999 -999 -999 -999
2006-07-26 07:16:52 51°16.818 2°52.093 -999 -999 -999 -999 -999
2006-07-26 07:16:58 51°16.82 2°52.097 -999 -999 -999 -999 -999
2006-07-26 07:17:02 51°16.822 2°52.099 -999 -999 -999 -999 -999
2006-07-26 07:17:07 51°16.823 2°52.103 -999 -999 -999 -999 -999
2006-07-26 07:17:12 51°16.825 2°52.107 -999 -999 -999 -999 -999
2006-07-26 07:17:17 51°16.826 2°52.111 -999 -999 -999 -999 -999
2006-07-26 07:17:22 51°16.827 2°52.115 -999 -999 -999 -999 -999
2006-07-26 07:17:27 51°16.828 2°52.12 -999 -999 -999 -999 -999
2006-07-26 07:17:32 51°16.83 2°52.125 -999 -999 -999 -999 -999
2006-07-26 07:17:37 51°16.831 2°52.13 -999 -999 -999 -999 -999
2006-07-26 07:17:42 51°16.832 2°52.135 -999 -999 -999 -999 -999
2006-07-26 07:17:46 51°16.832 2°52.14 -999 -999 -999 -999 -999
2006-07-26 07:17:52 51°16.833 2°52.146 -999 -999 -999 -999 -999
2006-07-26 07:17:57 51°16.834 2°52.152 -999 -999 -999 -999 -999
2006-07-26 07:18:02 51°16.835 2°52.158 -999 -999 -999 -999 -999
2006-07-26 07:18:07 51°16.836 2°52.164 -999 -999 -999 -999 -999
2006-07-26 07:18:12 51°16.836 2°52.17 -999 -999 -999 -999 -999
2006-07-26 07:18:17 51°16.837 2°52.176 -999 -999 -999 -999 -999
2006-07-26 07:18:22 51°16.837 2°52.182 -999 -999 -999 -999 -999
2006-07-26 07:18:27 51°16.838 2°52.188 -999 -999 -999 -999 -999
2006-07-26 07:18:32 51°16.838 2°52.194 -999 -999 -999 -999 -999
2006-07-26 07:18:37 51°16.839 2°52.2 -999 -999 -999 -999 -999
2006-07-26 07:18:42 51°16.839 2°52.207 -999 -999 -999 -999 -999
2006-07-26 07:18:46 51°16.839 2°52.212 -999 -999 -999 -999 -999
2006-07-26 07:18:52 51°16.839 2°52.219 -999 -999 -999 -999 -999
2006-07-26 07:18:57 51°16.839 2°52.225 -999 -999 -999 -999 -999
2006-07-26 07:19:02 51°16.839 2°52.231 -999 -999 -999 -999 -999
2006-07-26 07:19:07 51°16.839 2°52.237 -999 -999 -999 -999 -999
2006-07-26 07:19:12 51°16.839 2°52.243 -999 -999 -999 -999 -999
2006-07-26 07:19:17 51°16.839 2°52.25 -999 -999 -999 -999 -999
2006-07-26 07:19:22 51°16.839 2°52.256 -999 -999 -999 -999 -999
2006-07-26 07:19:27 51°16.839 2°52.262 -999 -999 -999 -999 -999
2006-07-26 07:19:32 51°16.838 2°52.268 -999 -999 -999 -999 -999
2006-07-26 07:19:37 51°16.838 2°52.274 -999 -999 -999 -999 -999
2006-07-26 07:19:42 51°16.838 2°52.28 -999 -999 -999 -999 -999
2006-07-26 07:19:47 51°16.837 2°52.286 -999 -999 -999 -999 -999
2006-07-26 07:19:52 51°16.837 2°52.292 -999 -999 -999 -999 -999
2006-07-26 07:19:57 51°16.837 2°52.297 -999 -999 -999 -999 -999
2006-07-26 07:20:02 51°16.836 2°52.303 -999 -999 -999 -999 -999
2006-07-26 07:20:07 51°16.836 2°52.309 -999 -999 -999 -999 -999
2006-07-26 07:20:12 51°16.835 2°52.315 -999 -999 -999 -999 -999
2006-07-26 07:20:17 51°16.834 2°52.321 -999 -999 -999 -999 -999
2006-07-26 07:20:22 51°16.834 2°52.328 -999 -999 -999 -999 -999
2006-07-26 07:20:27 51°16.833 2°52.334 -999 -999 -999 -999 -999
2006-07-26 07:20:32 51°16.833 2°52.339 -999 -999 -999 -999 -999
2006-07-26 07:20:37 51°16.832 2°52.345 -999 -999 -999 -999 -999
2006-07-26 07:20:42 51°16.831 2°52.351 -999 -999 -999 -999 -999
2006-07-26 07:20:47 51°16.83 2°52.357 -999 -999 -999 -999 -999
2006-07-26 07:20:52 51°16.829 2°52.363 -999 -999 -999 -999 -999
2006-07-26 07:20:57 51°16.828 2°52.368 -999 -999 -999 -999 -999
2006-07-26 07:21:02 51°16.827 2°52.374 -999 -999 -999 -999 -999
2006-07-26 07:21:07 51°16.825 2°52.38 -999 -999 -999 -999 -999
2006-07-26 07:21:12 51°16.824 2°52.386 -999 -999 -999 -999 -999
2006-07-26 07:21:18 51°16.822 2°52.393 -999 -999 -999 -999 -999
2006-07-26 07:21:22 51°16.82 2°52.397 -999 -999 -999 -999 -999
2006-07-26 07:21:27 51°16.818 2°52.403 -999 -999 -999 -999 -999
2006-07-26 07:21:32 51°16.817 2°52.409 -999 -999 -999 -999 -999
2006-07-26 07:21:37 51°16.814 2°52.414 -999 -999 -999 -999 -999
2006-07-26 07:21:42 51°16.812 2°52.419 -999 -999 -999 -999 -999
2006-07-26 07:21:46 51°16.81 2°52.423 -999 -999 -999 -999 -999
2006-07-26 07:21:52 51°16.806 2°52.429 -999 -999 -999 -999 -999
2006-07-26 07:21:57 51°16.803 2°52.434 -999 -999 -999 -999 -999
2006-07-26 07:22:02 51°16.8 2°52.439 -999 -999 -999 -999 -999
2006-07-26 07:22:07 51°16.796 2°52.443 -999 -999 -999 -999 -999
2006-07-26 07:22:12 51°16.792 2°52.448 -999 -999 -999 -999 -999
2006-07-26 07:22:17 51°16.788 2°52.452 -999 -999 -999 -999 -999
2006-07-26 07:22:22 51°16.784 2°52.455 -999 -999 -999 -999 -999
2006-07-26 07:22:27 51°16.78 2°52.459 -999 -999 -999 -999 -999
2006-07-26 07:22:32 51°16.775 2°52.463 -999 -999 -999 -999 -999
2006-07-26 07:22:37 51°16.771 2°52.466 -999 -999 -999 -999 -999
2006-07-26 07:22:42 51°16.766 2°52.469 -999 -999 -999 -999 -999
2006-07-26 07:22:47 51°16.761 2°52.472 -999 -999 -999 -999 -999
2006-07-26 07:22:52 51°16.756 2°52.475 -999 -999 -999 -999 -999
2006-07-26 07:22:56 51°16.752 2°52.476 -999 -999 -999 -999 -999
2006-07-26 07:23:02 51°16.746 2°52.479 -999 -999 -999 -999 -999
2006-07-26 07:23:07 51°16.741 2°52.48 -999 -999 -999 -999 -999
2006-07-26 07:23:12 51°16.736 2°52.482 -999 -999 -999 -999 -999
2006-07-26 07:23:17 51°16.731 2°52.483 -999 -999 -999 -999 -999
2006-07-26 07:23:22 51°16.725 2°52.484 -999 -999 -999 -999 -999
2006-07-26 07:23:26 51°16.721 2°52.484 -999 -999 -999 -999 -999
2006-07-26 07:23:32 51°16.714 2°52.484 -999 -999 -999 -999 -999
2006-07-26 07:23:37 51°16.708 2°52.484 -999 -999 -999 -999 -999
2006-07-26 07:23:42 51°16.703 2°52.484 -999 -999 -999 -999 -999
2006-07-26 07:23:47 51°16.697 2°52.483 -999 -999 -999 -999 -999
2006-07-26 07:23:52 51°16.692 2°52.482 -999 -999 -999 -999 -999
2006-07-26 07:23:57 51°16.686 2°52.481 -999 -999 -999 -999 -999
2006-07-26 07:24:02 51°16.68 2°52.479 -999 -999 -999 -999 -999
2006-07-26 07:24:07 51°16.674 2°52.478 -999 -999 -999 -999 -999
2006-07-26 07:24:12 51°16.668 2°52.475 -999 -999 -999 -999 -999
2006-07-26 07:24:17 51°16.663 2°52.473 -999 -999 -999 -999 -999
2006-07-26 07:24:22 51°16.657 2°52.47 -999 -999 -999 -999 -999
2006-07-26 07:24:27 51°16.651 2°52.467 -999 -999 -999 -999 -999
2006-07-26 07:24:32 51°16.646 2°52.464 -999 -999 -999 -999 -999
2006-07-26 07:24:37 51°16.64 2°52.461 -999 -999 -999 -999 -999
2006-07-26 07:24:42 51°16.635 2°52.457 -999 -999 -999 -999 -999
2006-07-26 07:24:47 51°16.629 2°52.452 -999 -999 -999 -999 -999
2006-07-26 07:24:52 51°16.624 2°52.448 -999 -999 -999 -999 -999
2006-07-26 07:24:57 51°16.619 2°52.443 -999 -999 -999 -999 -999
2006-07-26 07:25:02 51°16.614 2°52.438 -999 -999 -999 -999 -999
2006-07-26 07:25:07 51°16.609 2°52.433 -999 -999 -999 -999 -999
2006-07-26 07:25:11 51°16.605 2°52.428 -999 -999 -999 -999 -999
2006-07-26 07:25:17 51°16.599 2°52.421 -999 -999 -999 -999 -999
2006-07-26 07:25:22 51°16.595 2°52.415 -999 -999 -999 -999 -999
2006-07-26 07:25:27 51°16.59 2°52.409 -999 -999 -999 -999 -999
2006-07-26 07:25:32 51°16.586 2°52.402 -999 -999 -999 -999 -999
2006-07-26 07:25:37 51°16.582 2°52.396 -999 -999 -999 -999 -999
2006-07-26 07:25:42 51°16.578 2°52.389 -999 -999 -999 -999 -999
2006-07-26 07:25:47 51°16.574 2°52.382 -999 -999 -999 -999 -999
2006-07-26 07:25:52 51°16.571 2°52.374 -999 -999 -999 -999 -999
2006-07-26 07:25:57 51°16.567 2°52.367 -999 -999 -999 -999 -999
2006-07-26 07:26:02 51°16.564 2°52.359 -999 -999 -999 -999 -999
2006-07-26 07:26:07 51°16.562 2°52.351 -999 -999 -999 -999 -999
2006-07-26 07:26:12 51°16.559 2°52.343 -999 -999 -999 -999 -999
2006-07-26 07:26:17 51°16.557 2°52.335 -999 -999 -999 -999 -999
2006-07-26 07:26:22 51°16.555 2°52.326 -999 -999 -999 -999 -999
2006-07-26 07:26:27 51°16.554 2°52.318 -999 -999 -999 -999 -999
2006-07-26 07:26:32 51°16.553 2°52.31 -999 -999 -999 -999 -999
2006-07-26 07:26:37 51°16.552 2°52.301 -999 -999 -999 -999 -999
2006-07-26 07:26:42 51°16.552 2°52.293 -999 -999 -999 -999 -999
2006-07-26 07:26:48 51°16.551 2°52.283 -999 -999 -999 -999 -999
2006-07-26 07:26:52 51°16.551 2°52.277 -999 -999 -999 -999 -999
2006-07-26 07:26:57 51°16.551 2°52.269 -999 -999 -999 -999 -999
2006-07-26 07:27:02 51°16.552 2°52.261 -999 -999 -999 -999 -999
2006-07-26 07:27:07 51°16.553 2°52.253 -999 -999 -999 -999 -999
2006-07-26 07:27:12 51°16.554 2°52.246 -999 -999 -999 -999 -999
2006-07-26 07:27:17 51°16.555 2°52.239 -999 -999 -999 -999 -999
2006-07-26 07:27:22 51°16.557 2°52.232 -999 -999 -999 -999 -999
2006-07-26 07:27:27 51°16.558 2°52.226 -999 -999 -999 -999 -999
2006-07-26 07:27:32 51°16.56 2°52.22 -999 -999 -999 -999 -999
2006-07-26 07:27:37 51°16.562 2°52.214 -999 -999 -999 -999 -999
2006-07-26 07:27:41 51°16.564 2°52.209 -999 -999 -999 -999 -999
2006-07-26 07:27:47 51°16.567 2°52.203 -999 -999 -999 -999 -999
2006-07-26 07:27:53 51°16.57 2°52.198 -999 -999 -999 -999 -999
2006-07-26 07:27:57 51°16.572 2°52.194 -999 -999 -999 -999 -999
2006-07-26 07:28:02 51°16.575 2°52.191 -999 -999 -999 -999 -999
2006-07-26 07:28:06 51°16.577 2°52.188 -999 -999 -999 -999 -999
2006-07-26 07:28:12 51°16.58 2°52.184 -999 -999 -999 -999 -999
2006-07-26 07:28:17 51°16.583 2°52.182 -999 -999 -999 -999 -999
2006-07-26 07:28:21 51°16.586 2°52.18 -999 -999 -999 -999 -999
2006-07-26 07:28:27 51°16.589 2°52.178 -999 -999 -999 -999 -999
2006-07-26 07:28:32 51°16.592 2°52.176 -999 -999 -999 -999 -999
2006-07-26 07:28:37 51°16.595 2°52.175 -999 -999 -999 -999 -999
2006-07-26 07:28:42 51°16.599 2°52.175 -999 -999 -999 -999 -999
2006-07-26 07:28:47 51°16.602 2°52.174 -999 -999 -999 -999 -999
2006-07-26 07:28:52 51°16.605 2°52.174 -999 -999 -999 -999 -999
2006-07-26 07:28:57 51°16.609 2°52.174 -999 -999 -999 -999 -999
2006-07-26 07:29:02 51°16.612 2°52.174 -999 -999 -999 -999 -999
2006-07-26 07:29:07 51°16.616 2°52.174 -999 -999 -999 -999 -999
2006-07-26 07:29:12 51°16.619 2°52.175 -999 -999 -999 -999 -999
2006-07-26 07:29:18 51°16.623 2°52.176 -999 -999 -999 -999 -999
2006-07-26 07:29:22 51°16.626 2°52.177 -999 -999 -999 -999 -999
2006-07-26 07:29:26 51°16.629 2°52.178 -999 -999 -999 -999 -999
2006-07-26 07:29:32 51°16.634 2°52.179 -999 -999 -999 -999 -999
2006-07-26 07:29:37 51°16.637 2°52.181 -999 -999 -999 -999 -999
2006-07-26 07:29:42 51°16.641 2°52.182 -999 -999 -999 -999 -999
2006-07-26 07:29:47 51°16.644 2°52.184 -999 -999 -999 -999 -999
2006-07-26 07:29:52 51°16.648 2°52.186 -999 -999 -999 -999 -999
2006-07-26 07:29:57 51°16.652 2°52.188 -999 -999 -999 -999 -999
2006-07-26 07:30:02 51°16.655 2°52.191 -999 -999 -999 -999 -999
2006-07-26 07:30:07 51°16.659 2°52.193 -999 -999 -999 -999 -999
2006-07-26 07:30:12 51°16.662 2°52.196 -999 -999 -999 -999 -999
2006-07-26 07:30:17 51°16.666 2°52.199 -999 -999 -999 -999 -999
2006-07-26 07:30:22 51°16.669 2°52.201 -999 -999 -999 -999 -999
2006-07-26 07:30:27 51°16.672 2°52.204 -999 -999 -999 -999 -999
2006-07-26 07:30:32 51°16.676 2°52.208 -999 -999 -999 -999 -999
2006-07-26 07:30:37 51°16.678 2°52.211 -999 -999 -999 -999 -999
2006-07-26 07:30:42 51°16.682 2°52.215 -999 -999 -999 -999 -999
2006-07-26 07:30:47 51°16.685 2°52.218 -999 -999 -999 -999 -999
2006-07-26 07:30:52 51°16.687 2°52.222 -999 -999 -999 -999 -999
2006-07-26 07:30:57 51°16.69 2°52.226 -999 -999 -999 -999 -999
2006-07-26 07:31:01 51°16.692 2°52.229 -999 -999 -999 -999 -999
2006-07-26 07:31:07 51°16.695 2°52.234 -999 -999 -999 -999 -999
2006-07-26 07:31:12 51°16.698 2°52.239 -999 -999 -999 -999 -999
2006-07-26 07:31:17 51°16.7 2°52.243 -999 -999 -999 -999 -999
2006-07-26 07:31:22 51°16.702 2°52.248 -999 -999 -999 -999 -999
2006-07-26 07:31:28 51°16.704 2°52.254 -999 -999 -999 -999 -999
2006-07-26 07:31:32 51°16.705 2°52.258 -999 -999 -999 -999 -999
2006-07-26 07:31:37 51°16.707 2°52.264 -999 -999 -999 -999 -999
2006-07-26 07:31:42 51°16.708 2°52.269 -999 -999 -999 -999 -999
2006-07-26 07:31:47 51°16.709 2°52.275 -999 -999 -999 -999 -999
2006-07-26 07:31:52 51°16.71 2°52.281 -999 -999 -999 -999 -999
2006-07-26 07:31:57 51°16.71 2°52.287 -999 -999 -999 -999 -999
2006-07-26 07:32:02 51°16.711 2°52.293 -999 -999 -999 -999 -999
2006-07-26 07:32:07 51°16.711 2°52.299 -999 -999 -999 -999 -999
2006-07-26 07:32:12 51°16.711 2°52.305 -999 -999 -999 -999 -999
2006-07-26 07:32:17 51°16.71 2°52.31 -999 -999 -999 -999 -999
2006-07-26 07:32:22 51°16.71 2°52.315 -999 -999 -999 -999 -999
2006-07-26 07:32:27 51°16.71 2°52.32 -999 -999 -999 -999 -999
2006-07-26 07:32:32 51°16.709 2°52.325 -999 -999 -999 -999 -999
2006-07-26 07:32:37 51°16.708 2°52.329 -999 -999 -999 -999 -999
2006-07-26 07:32:42 51°16.707 2°52.333 -999 -999 -999 -999 -999
2006-07-26 07:32:46 51°16.707 2°52.337 -999 -999 -999 -999 -999
2006-07-26 07:32:52 51°16.705 2°52.341 -999 -999 -999 -999 -999
2006-07-26 07:32:57 51°16.704 2°52.345 -999 -999 -999 -999 -999
2006-07-26 07:33:02 51°16.703 2°52.348 -999 -999 -999 -999 -999
2006-07-26 07:33:07 51°16.701 2°52.352 -999 -999 -999 -999 -999
2006-07-26 07:33:12 51°16.7 2°52.355 -999 -999 -999 -999 -999
2006-07-26 07:33:17 51°16.698 2°52.358 -999 -999 -999 -999 -999
2006-07-26 07:33:22 51°16.697 2°52.361 -999 -999 -999 -999 -999
2006-07-26 07:33:27 51°16.695 2°52.364 -999 -999 -999 -999 -999
2006-07-26 07:33:32 51°16.693 2°52.367 -999 -999 -999 -999 -999
2006-07-26 07:33:36 51°16.692 2°52.368 -999 -999 -999 -999 -999
2006-07-26 07:33:42 51°16.69 2°52.371 -999 -999 -999 -999 -999
2006-07-26 07:33:46 51°16.688 2°52.373 -999 -999 -999 -999 -999
2006-07-26 07:33:51 51°16.686 2°52.375 -999 -999 -999 -999 -999
2006-07-26 07:33:57 51°16.684 2°52.378 -999 -999 -999 -999 -999
2006-07-26 07:34:02 51°16.682 2°52.38 -999 -999 -999 -999 -999
2006-07-26 07:34:07 51°16.681 2°52.382 -999 -999 -999 -999 -999
2006-07-26 07:34:12 51°16.679 2°52.383 -999 -999 -999 -999 -999
2006-07-26 07:34:17 51°16.677 2°52.385 -999 -999 -999 -999 -999
2006-07-26 07:34:22 51°16.675 2°52.386 -999 -999 -999 -999 -999
2006-07-26 07:34:27 51°16.674 2°52.388 -999 -999 -999 -999 -999
2006-07-26 07:34:32 51°16.672 2°52.389 -999 -999 -999 -999 -999
2006-07-26 07:34:38 51°16.67 2°52.391 -999 -999 -999 -999 -999
2006-07-26 07:34:42 51°16.668 2°52.392 -999 -999 -999 -999 -999
2006-07-26 07:34:47 51°16.666 2°52.393 -999 -999 -999 -999 -999
2006-07-26 07:34:52 51°16.664 2°52.395 -999 -999 -999 -999 -999
2006-07-26 07:34:57 51°16.662 2°52.395 -999 -999 -999 -999 -999
2006-07-26 07:35:02 51°16.661 2°52.397 -999 -999 -999 -999 -999
2006-07-26 07:35:07 51°16.659 2°52.398 -999 -999 -999 -999 -999
2006-07-26 07:35:12 51°16.657 2°52.398 -999 -999 -999 -999 -999
2006-07-26 07:35:17 51°16.655 2°52.4 -999 -999 -999 -999 -999
2006-07-26 07:35:22 51°16.653 2°52.401 -999 -999 -999 -999 -999
2006-07-26 07:35:27 51°16.651 2°52.403 -999 -999 -999 -999 -999
2006-07-26 07:35:32 51°16.649 2°52.405 -999 -999 -999 -999 -999
2006-07-26 07:35:37 51°16.647 2°52.407 -999 -999 -999 -999 -999
2006-07-26 07:35:42 51°16.645 2°52.409 -999 -999 -999 -999 -999
2006-07-26 07:35:47 51°16.643 2°52.411 -999 -999 -999 -999 -999
2006-07-26 07:35:52 51°16.641 2°52.414 -999 -999 -999 -999 -999
2006-07-26 07:35:57 51°16.638 2°52.417 -999 -999 -999 -999 -999
2006-07-26 07:36:02 51°16.636 2°52.421 -999 -999 -999 -999 -999
2006-07-26 07:36:07 51°16.634 2°52.424 -999 -999 -999 -999 -999
2006-07-26 07:36:12 51°16.632 2°52.428 -999 -999 -999 -999 -999
2006-07-26 07:36:17 51°16.629 2°52.432 -999 -999 -999 -999 -999
2006-07-26 07:36:22 51°16.627 2°52.437 -999 -999 -999 -999 -999
2006-07-26 07:36:27 51°16.624 2°52.441 -999 -999 -999 -999 -999
2006-07-26 07:36:32 51°16.622 2°52.446 -999 -999 -999 -999 -999
2006-07-26 07:36:37 51°16.619 2°52.451 -999 -999 -999 -999 -999
2006-07-26 07:36:42 51°16.617 2°52.456 -999 -999 -999 -999 -999
2006-07-26 07:36:47 51°16.614 2°52.461 -999 -999 -999 -999 -999
2006-07-26 07:36:52 51°16.611 2°52.467 -999 -999 -999 -999 -999
2006-07-26 07:36:57 51°16.608 2°52.472 -999 -999 -999 -999 -999
2006-07-26 07:37:02 51°16.605 2°52.478 -999 -999 -999 -999 -999
2006-07-26 07:37:07 51°16.602 2°52.483 -999 -999 -999 -999 -999
2006-07-26 07:37:12 51°16.599 2°52.489 -999 -999 -999 -999 -999
2006-07-26 07:37:17 51°16.596 2°52.495 -999 -999 -999 -999 -999
2006-07-26 07:37:22 51°16.593 2°52.501 -999 -999 -999 -999 -999
2006-07-26 07:37:27 51°16.59 2°52.506 -999 -999 -999 -999 -999
2006-07-26 07:37:32 51°16.586 2°52.511 -999 -999 -999 -999 -999
2006-07-26 07:37:37 51°16.582 2°52.516 -999 -999 -999 -999 -999
2006-07-26 07:37:42 51°16.579 2°52.521 -999 -999 -999 -999 -999
2006-07-26 07:37:47 51°16.576 2°52.526 -999 -999 -999 -999 -999
2006-07-26 07:37:51 51°16.573 2°52.529 -999 -999 -999 -999 -999
2006-07-26 07:37:56 51°16.571 2°52.534 -999 -999 -999 -999 -999
2006-07-26 07:38:02 51°16.567 2°52.539 -999 -999 -999 -999 -999
2006-07-26 07:38:07 51°16.564 2°52.542 -999 -999 -999 -999 -999
2006-07-26 07:38:11 51°16.562 2°52.545 -999 -999 -999 -999 -999
2006-07-26 07:38:17 51°16.559 2°52.549 -999 -999 -999 -999 -999
2006-07-26 07:38:22 51°16.556 2°52.553 -999 -999 -999 -999 -999
2006-07-26 07:38:27 51°16.553 2°52.556 -999 -999 -999 -999 -999
2006-07-26 07:38:32 51°16.55 2°52.559 -999 -999 -999 -999 -999
2006-07-26 07:38:37 51°16.547 2°52.562 -999 -999 -999 -999 -999
2006-07-26 07:38:42 51°16.544 2°52.564 -999 -999 -999 -999 -999
2006-07-26 07:38:47 51°16.541 2°52.566 -999 -999 -999 -999 -999
2006-07-26 07:38:52 51°16.538 2°52.569 -999 -999 -999 -999 -999
2006-07-26 07:38:57 51°16.535 2°52.571 -999 -999 -999 -999 -999
2006-07-26 07:39:02 51°16.533 2°52.573 -999 -999 -999 -999 -999
2006-07-26 07:39:07 51°16.53 2°52.575 -999 -999 -999 -999 -999
2006-07-26 07:39:12 51°16.527 2°52.577 -999 -999 -999 -999 -999
2006-07-26 07:39:16 51°16.525 2°52.579 -999 -999 -999 -999 -999
2006-07-26 07:39:22 51°16.522 2°52.581 -999 -999 -999 -999 -999
2006-07-26 07:39:27 51°16.519 2°52.583 -999 -999 -999 -999 -999
2006-07-26 07:39:32 51°16.517 2°52.584 -999 -999 -999 -999 -999
2006-07-26 07:39:37 51°16.515 2°52.586 -999 -999 -999 -999 -999
2006-07-26 07:39:42 51°16.512 2°52.587 -999 -999 -999 -999 -999
2006-07-26 07:39:47 51°16.51 2°52.589 -999 -999 -999 -999 -999
2006-07-26 07:39:52 51°16.507 2°52.59 -999 -999 -999 -999 -999
2006-07-26 07:39:57 51°16.505 2°52.591 -999 -999 -999 -999 -999
2006-07-26 07:40:02 51°16.502 2°52.592 -999 -999 -999 -999 -999
2006-07-26 07:40:07 51°16.5 2°52.593 -999 -999 -999 -999 -999
2006-07-26 07:40:12 51°16.498 2°52.595 -999 -999 -999 -999 -999
2006-07-26 07:40:17 51°16.496 2°52.596 -999 -999 -999 -999 -999
2006-07-26 07:40:22 51°16.494 2°52.597 -999 -999 -999 -999 -999
2006-07-26 07:40:27 51°16.491 2°52.599 -999 -999 -999 -999 -999
2006-07-26 07:40:32 51°16.488 2°52.601 -999 -999 -999 -999 -999
2006-07-26 07:40:37 51°16.485 2°52.604 -999 -999 -999 -999 -999
2006-07-26 07:40:42 51°16.481 2°52.608 -999 -999 -999 -999 -999
2006-07-26 07:40:47 51°16.477 2°52.611 -999 -999 -999 -999 -999
2006-07-26 07:40:52 51°16.473 2°52.615 -999 -999 -999 -999 -999
2006-07-26 07:40:57 51°16.469 2°52.619 -999 -999 -999 -999 -999
2006-07-26 07:41:02 51°16.464 2°52.623 -999 -999 -999 -999 -999
2006-07-26 07:41:07 51°16.458 2°52.627 -999 -999 -999 -999 -999
2006-07-26 07:41:12 51°16.452 2°52.63 -999 -999 -999 -999 -999
2006-07-26 07:41:17 51°16.445 2°52.632 -999 -999 -999 -999 -999
2006-07-26 07:41:22 51°16.438 2°52.634 -999 -999 -999 -999 -999
2006-07-26 07:41:27 51°16.431 2°52.636 -999 -999 -999 -999 -999
2006-07-26 07:41:32 51°16.424 2°52.636 -999 -999 -999 -999 -999
2006-07-26 07:41:38 51°16.415 2°52.636 -999 -999 -999 -999 -999
2006-07-26 07:41:42 51°16.409 2°52.635 -999 -999 -999 -999 -999
2006-07-26 07:41:47 51°16.402 2°52.633 -999 -999 -999 -999 -999
2006-07-26 07:41:52 51°16.395 2°52.631 -999 -999 -999 -999 -999
2006-07-26 07:41:56 51°16.389 2°52.629 -999 -999 -999 -999 -999
2006-07-26 07:42:02 51°16.38 2°52.626 -999 -999 -999 -999 -999
2006-07-26 07:42:07 51°16.373 2°52.622 -999 -999 -999 -999 -999
2006-07-26 07:42:12 51°16.367 2°52.618 -999 -999 -999 -999 -999
2006-07-26 07:42:17 51°16.36 2°52.613 -999 -999 -999 -999 -999
2006-07-26 07:42:22 51°16.353 2°52.608 -999 -999 -999 -999 -999
2006-07-26 07:42:27 51°16.347 2°52.603 -999 -999 -999 -999 -999
2006-07-26 07:42:32 51°16.34 2°52.598 -999 -999 -999 -999 -999
2006-07-26 07:42:37 51°16.334 2°52.592 -999 -999 -999 -999 -999
2006-07-26 07:42:42 51°16.328 2°52.586 -999 -999 -999 -999 -999
2006-07-26 07:42:47 51°16.321 2°52.579 -999 -999 -999 -999 -999
2006-07-26 07:42:52 51°16.315 2°52.573 -999 -999 -999 -999 -999
2006-07-26 07:42:57 51°16.309 2°52.566 -999 -999 -999 -999 -999
2006-07-26 07:43:02 51°16.303 2°52.559 -999 -999 -999 -999 -999
2006-07-26 07:43:08 51°16.296 2°52.55 -999 -999 -999 -999 -999
2006-07-26 07:43:12 51°16.291 2°52.545 -999 -999 -999 -999 -999
2006-07-26 07:43:17 51°16.286 2°52.537 -999 -999 -999 -999 -999
2006-07-26 07:43:22 51°16.28 2°52.53 -999 -999 -999 -999 -999
2006-07-26 07:43:27 51°16.275 2°52.523 -999 -999 -999 -999 -999
2006-07-26 07:43:32 51°16.269 2°52.515 -999 -999 -999 -999 -999
2006-07-26 07:43:36 51°16.265 2°52.509 -999 -999 -999 -999 -999
2006-07-26 07:43:42 51°16.259 2°52.501 -999 -999 -999 -999 -999
2006-07-26 07:43:47 51°16.254 2°52.493 -999 -999 -999 -999 -999
2006-07-26 07:43:52 51°16.249 2°52.486 -999 -999 -999 -999 -999
2006-07-26 07:43:57 51°16.244 2°52.479 -999 -999 -999 -999 -999
2006-07-26 07:44:02 51°16.239 2°52.472 -999 -999 -999 -999 -999
2006-07-26 07:44:07 51°16.235 2°52.465 -999 -999 -999 -999 -999
2006-07-26 07:44:12 51°16.23 2°52.459 -999 -999 -999 -999 -999
2006-07-26 07:44:18 51°16.225 2°52.451 -999 -999 -999 -999 -999
2006-07-26 07:44:22 51°16.221 2°52.445 -999 -999 -999 -999 -999
2006-07-26 07:44:26 51°16.218 2°52.44 -999 -999 -999 -999 -999
2006-07-26 07:44:32 51°16.213 2°52.432 -999 -999 -999 -999 -999
2006-07-26 07:44:37 51°16.209 2°52.426 -999 -999 -999 -999 -999
2006-07-26 07:44:42 51°16.205 2°52.419 -999 -999 -999 -999 -999
2006-07-26 07:44:47 51°16.201 2°52.413 -999 -999 -999 -999 -999
2006-07-26 07:44:52 51°16.197 2°52.407 -999 -999 -999 -999 -999
2006-07-26 07:44:57 51°16.193 2°52.401 -999 -999 -999 -999 -999
2006-07-26 07:45:02 51°16.189 2°52.395 -999 -999 -999 -999 -999
2006-07-26 07:45:06 51°16.186 2°52.39 -999 -999 -999 -999 -999
2006-07-26 07:45:12 51°16.182 2°52.382 -999 -999 -999 -999 -999
2006-07-26 07:45:17 51°16.178 2°52.377 -999 -999 -999 -999 -999
2006-07-26 07:45:22 51°16.174 2°52.371 -999 -999 -999 -999 -999
2006-07-26 07:45:28 51°16.17 2°52.364 -999 -999 -999 -999 -999
2006-07-26 07:45:32 51°16.167 2°52.359 -999 -999 -999 -999 -999
2006-07-26 07:45:37 51°16.163 2°52.354 -999 -999 -999 -999 -999
2006-07-26 07:45:42 51°16.159 2°52.348 -999 -999 -999 -999 -999
2006-07-26 07:45:47 51°16.156 2°52.343 -999 -999 -999 -999 -999
2006-07-26 07:45:52 51°16.152 2°52.338 -999 -999 -999 -999 -999
2006-07-26 07:45:56 51°16.149 2°52.333 -999 -999 -999 -999 -999
2006-07-26 07:46:02 51°16.145 2°52.327 -999 -999 -999 -999 -999
2006-07-26 07:46:07 51°16.141 2°52.322 -999 -999 -999 -999 -999
2006-07-26 07:46:12 51°16.138 2°52.316 -999 -999 -999 -999 -999
2006-07-26 07:46:17 51°16.134 2°52.311 -999 -999 -999 -999 -999
2006-07-26 07:46:22 51°16.131 2°52.306 -999 -999 -999 -999 -999
2006-07-26 07:46:27 51°16.127 2°52.301 -999 -999 -999 -999 -999
2006-07-26 07:46:32 51°16.124 2°52.296 -999 -999 -999 -999 -999
2006-07-26 07:46:37 51°16.12 2°52.291 -999 -999 -999 -999 -999
2006-07-26 07:46:42 51°16.117 2°52.286 -999 -999 -999 -999 -999
2006-07-26 07:46:47 51°16.113 2°52.281 -999 -999 -999 -999 -999
2006-07-26 07:46:52 51°16.11 2°52.276 -999 -999 -999 -999 -999
2006-07-26 07:46:57 51°16.107 2°52.271 -999 -999 -999 -999 -999
2006-07-26 07:47:02 51°16.103 2°52.266 -999 -999 -999 -999 -999
2006-07-26 07:47:08 51°16.099 2°52.261 -999 -999 -999 -999 -999
2006-07-26 07:47:12 51°16.096 2°52.257 -999 -999 -999 -999 -999
2006-07-26 07:47:16 51°16.094 2°52.253 -999 -999 -999 -999 -999
2006-07-26 07:47:22 51°16.09 2°52.247 -999 -999 -999 -999 -999
2006-07-26 07:47:28 51°16.086 2°52.242 -999 -999 -999 -999 -999
2006-07-26 07:47:32 51°16.083 2°52.238 -999 -999 -999 -999 -999
2006-07-26 07:47:37 51°16.08 2°52.233 -999 -999 -999 -999 -999
2006-07-26 07:47:42 51°16.076 2°52.228 -999 -999 -999 -999 -999
2006-07-26 07:47:47 51°16.073 2°52.224 -999 -999 -999 -999 -999
2006-07-26 07:47:52 51°16.07 2°52.219 -999 -999 -999 -999 -999
2006-07-26 07:47:57 51°16.066 2°52.215 -999 -999 -999 -999 -999
2006-07-26 07:48:02 51°16.063 2°52.21 -999 -999 -999 -999 -999
2006-07-26 07:48:07 51°16.06 2°52.205 -999 -999 -999 -999 -999
2006-07-26 07:48:12 51°16.056 2°52.201 -999 -999 -999 -999 -999
2006-07-26 07:48:18 51°16.052 2°52.195 -999 -999 -999 -999 -999
2006-07-26 07:48:22 51°16.05 2°52.191 -999 -999 -999 -999 -999
2006-07-26 07:48:27 51°16.046 2°52.187 -999 -999 -999 -999 -999
2006-07-26 07:48:32 51°16.043 2°52.182 -999 -999 -999 -999 -999
2006-07-26 07:48:37 51°16.039 2°52.178 -999 -999 -999 -999 -999
2006-07-26 07:48:42 51°16.036 2°52.174 -999 -999 -999 -999 -999
2006-07-26 07:48:47 51°16.033 2°52.169 -999 -999 -999 -999 -999
2006-07-26 07:48:52 51°16.029 2°52.164 -999 -999 -999 -999 -999
2006-07-26 07:48:57 51°16.026 2°52.16 -999 -999 -999 -999 -999
2006-07-26 07:49:02 51°16.023 2°52.155 -999 -999 -999 -999 -999
2006-07-26 07:49:07 51°16.02 2°52.151 -999 -999 -999 -999 -999
2006-07-26 07:49:12 51°16.016 2°52.147 -999 -999 -999 -999 -999
2006-07-26 07:49:17 51°16.013 2°52.142 -999 -999 -999 -999 -999
2006-07-26 07:49:22 51°16.01 2°52.138 -999 -999 -999 -999 -999
2006-07-26 07:49:28 51°16.006 2°52.133 -999 -999 -999 -999 -999
2006-07-26 07:49:32 51°16.003 2°52.129 -999 -999 -999 -999 -999
2006-07-26 07:49:36 51°16 2°52.125 -999 -999 -999 -999 -999
2006-07-26 07:49:42 51°15.996 2°52.12 -999 -999 -999 -999 -999
2006-07-26 07:49:48 51°15.992 2°52.115 -999 -999 -999 -999 -999
2006-07-26 07:49:52 51°15.99 2°52.112 -999 -999 -999 -999 -999
2006-07-26 07:49:57 51°15.987 2°52.107 -999 -999 -999 -999 -999
2006-07-26 07:50:02 51°15.983 2°52.103 -999 -999 -999 -999 -999
2006-07-26 07:50:07 51°15.98 2°52.099 -999 -999 -999 -999 -999
2006-07-26 07:50:12 51°15.977 2°52.094 -999 -999 -999 -999 -999
2006-07-26 07:50:17 51°15.973 2°52.09 -999 -999 -999 -999 -999
2006-07-26 07:50:22 51°15.97 2°52.086 -999 -999 -999 -999 -999
2006-07-26 07:50:27 51°15.967 2°52.082 -999 -999 -999 -999 -999
2006-07-26 07:50:32 51°15.964 2°52.077 -999 -999 -999 -999 -999
2006-07-26 07:50:38 51°15.96 2°52.072 -999 -999 -999 -999 -999
2006-07-26 07:50:42 51°15.957 2°52.068 -999 -999 -999 -999 -999
2006-07-26 07:50:47 51°15.954 2°52.064 -999 -999 -999 -999 -999
2006-07-26 07:50:52 51°15.95 2°52.06 -999 -999 -999 -999 -999
2006-07-26 07:50:56 51°15.948 2°52.056 -999 -999 -999 -999 -999
2006-07-26 07:51:02 51°15.944 2°52.051 -999 -999 -999 -999 -999
2006-07-26 07:51:07 51°15.941 2°52.047 -999 -999 -999 -999 -999
2006-07-26 07:51:12 51°15.937 2°52.043 -999 -999 -999 -999 -999
2006-07-26 07:51:17 51°15.934 2°52.038 -999 -999 -999 -999 -999
2006-07-26 07:51:22 51°15.931 2°52.034 -999 -999 -999 -999 -999
2006-07-26 07:51:27 51°15.927 2°52.03 -999 -999 -999 -999 -999
2006-07-26 07:51:32 51°15.924 2°52.025 -999 -999 -999 -999 -999
2006-07-26 07:51:37 51°15.921 2°52.021 -999 -999 -999 -999 -999
2006-07-26 07:51:42 51°15.918 2°52.017 -999 -999 -999 -999 -999
2006-07-26 07:51:47 51°15.914 2°52.012 -999 -999 -999 -999 -999
2006-07-26 07:51:52 51°15.911 2°52.008 -999 -999 -999 -999 -999
2006-07-26 07:51:57 51°15.908 2°52.004 -999 -999 -999 -999 -999
2006-07-26 07:52:01 51°15.905 2°52 -999 -999 -999 -999 -999
2006-07-26 07:52:07 51°15.901 2°51.995 -999 -999 -999 -999 -999
2006-07-26 07:52:12 51°15.898 2°51.991 -999 -999 -999 -999 -999
2006-07-26 07:52:17 51°15.894 2°51.986 -999 -999 -999 -999 -999
2006-07-26 07:52:22 51°15.891 2°51.982 -999 -999 -999 -999 -999
2006-07-26 07:52:27 51°15.888 2°51.978 -999 -999 -999 -999 -999
2006-07-26 07:52:33 51°15.884 2°51.972 -999 -999 -999 -999 -999
2006-07-26 07:52:37 51°15.881 2°51.969 -999 -999 -999 -999 -999
2006-07-26 07:52:41 51°15.879 2°51.965 -999 -999 -999 -999 -999
2006-07-26 07:52:47 51°15.875 2°51.96 -999 -999 -999 -999 -999
2006-07-26 07:52:52 51°15.872 2°51.955 -999 -999 -999 -999 -999
2006-07-26 07:52:57 51°15.869 2°51.951 -999 -999 -999 -999 -999
2006-07-26 07:53:02 51°15.865 2°51.947 -999 -999 -999 -999 -999
2006-07-26 07:53:06 51°15.863 2°51.943 -999 -999 -999 -999 -999
2006-07-26 07:53:12 51°15.859 2°51.938 -999 -999 -999 -999 -999
2006-07-26 07:53:17 51°15.856 2°51.933 -999 -999 -999 -999 -999
2006-07-26 07:53:22 51°15.853 2°51.929 -999 -999 -999 -999 -999
2006-07-26 07:53:27 51°15.849 2°51.924 -999 -999 -999 -999 -999
2006-07-26 07:53:32 51°15.846 2°51.92 -999 -999 -999 -999 -999
2006-07-26 07:53:37 51°15.843 2°51.915 -999 -999 -999 -999 -999
2006-07-26 07:53:42 51°15.84 2°51.911 -999 -999 -999 -999 -999
2006-07-26 07:53:47 51°15.837 2°51.907 -999 -999 -999 -999 -999
2006-07-26 07:53:52 51°15.833 2°51.903 -999 -999 -999 -999 -999
2006-07-26 07:53:57 51°15.83 2°51.898 -999 -999 -999 -999 -999
2006-07-26 07:54:02 51°15.827 2°51.894 -999 -999 -999 -999 -999
2006-07-26 07:54:07 51°15.824 2°51.889 -999 -999 -999 -999 -999
2006-07-26 07:54:12 51°15.82 2°51.885 -999 -999 -999 -999 -999
2006-07-26 07:54:16 51°15.818 2°51.881 -999 -999 -999 -999 -999
2006-07-26 07:54:22 51°15.814 2°51.876 -999 -999 -999 -999 -999
2006-07-26 07:54:26 51°15.811 2°51.873 -999 -999 -999 -999 -999
2006-07-26 07:54:32 51°15.807 2°51.867 -999 -999 -999 -999 -999
2006-07-26 07:54:37 51°15.804 2°51.863 -999 -999 -999 -999 -999
2006-07-26 07:54:42 51°15.801 2°51.859 -999 -999 -999 -999 -999
2006-07-26 07:54:47 51°15.798 2°51.854 -999 -999 -999 -999 -999
2006-07-26 07:54:52 51°15.795 2°51.85 -999 -999 -999 -999 -999
2006-07-26 07:54:57 51°15.792 2°51.846 -999 -999 -999 -999 -999
2006-07-26 07:55:02 51°15.788 2°51.841 -999 -999 -999 -999 -999
2006-07-26 07:55:07 51°15.785 2°51.837 -999 -999 -999 -999 -999
2006-07-26 07:55:12 51°15.782 2°51.832 -999 -999 -999 -999 -999
2006-07-26 07:55:17 51°15.779 2°51.827 -999 -999 -999 -999 -999
2006-07-26 07:55:22 51°15.776 2°51.823 -999 -999 -999 -999 -999
2006-07-26 07:55:27 51°15.773 2°51.819 -999 -999 -999 -999 -999
2006-07-26 07:55:32 51°15.769 2°51.814 -999 -999 -999 -999 -999
2006-07-26 07:55:37 51°15.766 2°51.81 -999 -999 -999 -999 -999
2006-07-26 07:55:42 51°15.763 2°51.805 -999 -999 -999 -999 -999
2006-07-26 07:55:47 51°15.759 2°51.801 -999 -999 -999 -999 -999
2006-07-26 07:55:52 51°15.756 2°51.797 -999 -999 -999 -999 -999
2006-07-26 07:55:57 51°15.753 2°51.792 -999 -999 -999 -999 -999
2006-07-26 07:56:02 51°15.75 2°51.788 -999 -999 -999 -999 -999
2006-07-26 07:56:06 51°15.747 2°51.784 -999 -999 -999 -999 -999
2006-07-26 07:56:12 51°15.744 2°51.779 -999 -999 -999 -999 -999
2006-07-26 07:56:17 51°15.741 2°51.774 -999 -999 -999 -999 -999
2006-07-26 07:56:22 51°15.737 2°51.77 -999 -999 -999 -999 -999
2006-07-26 07:56:27 51°15.734 2°51.765 -999 -999 -999 -999 -999
2006-07-26 07:56:32 51°15.731 2°51.761 -999 -999 -999 -999 -999
2006-07-26 07:56:37 51°15.728 2°51.756 -999 -999 -999 -999 -999
2006-07-26 07:56:42 51°15.725 2°51.752 -999 -999 -999 -999 -999
2006-07-26 07:56:47 51°15.722 2°51.747 -999 -999 -999 -999 -999
2006-07-26 07:56:52 51°15.719 2°51.743 -999 -999 -999 -999 -999
2006-07-26 07:56:57 51°15.715 2°51.738 -999 -999 -999 -999 -999
2006-07-26 07:57:02 51°15.712 2°51.734 -999 -999 -999 -999 -999
2006-07-26 07:57:07 51°15.709 2°51.73 -999 -999 -999 -999 -999
2006-07-26 07:57:12 51°15.706 2°51.725 -999 -999 -999 -999 -999
2006-07-26 07:57:17 51°15.703 2°51.721 -999 -999 -999 -999 -999
2006-07-26 07:57:22 51°15.7 2°51.716 -999 -999 -999 -999 -999
2006-07-26 07:57:27 51°15.697 2°51.712 -999 -999 -999 -999 -999
2006-07-26 07:57:32 51°15.694 2°51.707 -999 -999 -999 -999 -999
2006-07-26 07:57:37 51°15.691 2°51.703 -999 -999 -999 -999 -999
2006-07-26 07:57:42 51°15.688 2°51.699 -999 -999 -999 -999 -999
2006-07-26 07:57:47 51°15.685 2°51.694 -999 -999 -999 -999 -999
2006-07-26 07:57:52 51°15.682 2°51.69 -999 -999 -999 -999 -999
2006-07-26 07:57:57 51°15.679 2°51.685 -999 -999 -999 -999 -999
2006-07-26 07:58:02 51°15.676 2°51.68 -999 -999 -999 -999 -999
2006-07-26 07:58:07 51°15.674 2°51.676 -999 -999 -999 -999 -999
2006-07-26 07:58:12 51°15.671 2°51.671 -999 -999 -999 -999 -999
2006-07-26 07:58:17 51°15.668 2°51.667 -999 -999 -999 -999 -999
2006-07-26 07:58:22 51°15.665 2°51.662 -999 -999 -999 -999 -999
2006-07-26 07:58:27 51°15.663 2°51.657 -999 -999 -999 -999 -999
2006-07-26 07:58:32 51°15.66 2°51.653 -999 -999 -999 -999 -999
2006-07-26 07:58:37 51°15.657 2°51.648 -999 -999 -999 -999 -999
2006-07-26 07:58:42 51°15.655 2°51.643 -999 -999 -999 -999 -999
2006-07-26 07:58:48 51°15.652 2°51.638 -999 -999 -999 -999 -999
2006-07-26 07:58:52 51°15.65 2°51.634 -999 -999 -999 -999 -999
2006-07-26 07:58:57 51°15.648 2°51.629 -999 -999 -999 -999 -999
2006-07-26 07:59:02 51°15.645 2°51.625 -999 -999 -999 -999 -999
2006-07-26 07:59:08 51°15.642 2°51.619 -999 -999 -999 -999 -999
2006-07-26 07:59:12 51°15.64 2°51.615 -999 -999 -999 -999 -999
2006-07-26 07:59:17 51°15.638 2°51.611 -999 -999 -999 -999 -999
2006-07-26 07:59:22 51°15.636 2°51.606 -999 -999 -999 -999 -999
2006-07-26 07:59:27 51°15.634 2°51.602 -999 -999 -999 -999 -999
2006-07-26 07:59:32 51°15.632 2°51.597 -999 -999 -999 -999 -999
2006-07-26 07:59:37 51°15.63 2°51.592 -999 -999 -999 -999 -999
2006-07-26 07:59:42 51°15.627 2°51.588 -999 -999 -999 -999 -999
2006-07-26 07:59:46 51°15.626 2°51.584 -999 -999 -999 -999 -999
2006-07-26 07:59:52 51°15.623 2°51.578 -999 -999 -999 -999 -999
2006-07-26 07:59:57 51°15.621 2°51.574 -999 -999 -999 -999 -999
2006-07-26 08:00:02 51°15.619 2°51.569 -999 -999 -999 -999 -999
2006-07-26 08:00:07 51°15.617 2°51.564 -999 -999 -999 -999 -999
2006-07-26 08:00:12 51°15.615 2°51.559 -999 -999 -999 -999 -999
2006-07-26 08:00:18 51°15.613 2°51.553 -999 -999 -999 -999 -999
2006-07-26 08:00:22 51°15.611 2°51.549 -999 -999 -999 -999 -999
2006-07-26 08:00:27 51°15.609 2°51.545 -999 -999 -999 -999 -999
2006-07-26 08:00:32 51°15.607 2°51.54 -999 -999 -999 -999 -999
2006-07-26 08:00:36 51°15.605 2°51.537 -999 -999 -999 -999 -999
2006-07-26 08:00:42 51°15.603 2°51.531 -999 -999 -999 -999 -999
2006-07-26 08:00:47 51°15.601 2°51.526 -999 -999 -999 -999 -999
2006-07-26 08:00:52 51°15.599 2°51.522 -999 -999 -999 -999 -999
2006-07-26 08:00:57 51°15.597 2°51.517 -999 -999 -999 -999 -999
2006-07-26 08:01:02 51°15.595 2°51.513 -999 -999 -999 -999 -999
2006-07-26 08:01:07 51°15.593 2°51.508 -999 -999 -999 -999 -999
2006-07-26 08:01:12 51°15.591 2°51.503 -999 -999 -999 -999 -999
2006-07-26 08:01:17 51°15.589 2°51.498 -999 -999 -999 -999 -999
2006-07-26 08:01:22 51°15.587 2°51.494 -999 -999 -999 -999 -999
2006-07-26 08:01:27 51°15.585 2°51.489 -999 -999 -999 -999 -999
2006-07-26 08:01:32 51°15.583 2°51.485 -999 -999 -999 -999 -999
2006-07-26 08:01:37 51°15.581 2°51.48 -999 -999 -999 -999 -999
2006-07-26 08:01:42 51°15.579 2°51.475 -999 -999 -999 -999 -999
2006-07-26 08:01:47 51°15.577 2°51.471 -999 -999 -999 -999 -999
2006-07-26 08:01:52 51°15.575 2°51.466 -999 -999 -999 -999 -999
2006-07-26 08:01:57 51°15.573 2°51.461 -999 -999 -999 -999 -999
2006-07-26 08:02:02 51°15.571 2°51.457 -999 -999 -999 -999 -999
2006-07-26 08:02:07 51°15.569 2°51.452 -999 -999 -999 -999 -999
2006-07-26 08:02:12 51°15.567 2°51.447 -999 -999 -999 -999 -999
2006-07-26 08:02:17 51°15.566 2°51.442 -999 -999 -999 -999 -999
2006-07-26 08:02:23 51°15.564 2°51.436 -999 -999 -999 -999 -999
2006-07-26 08:02:27 51°15.562 2°51.433 -999 -999 -999 -999 -999
2006-07-26 08:02:32 51°15.561 2°51.428 -999 -999 -999 -999 -999
2006-07-26 08:02:37 51°15.559 2°51.423 -999 -999 -999 -999 -999
2006-07-26 08:02:42 51°15.557 2°51.419 -999 -999 -999 -999 -999
2006-07-26 08:02:47 51°15.555 2°51.414 -999 -999 -999 -999 -999
2006-07-26 08:02:52 51°15.553 2°51.409 -999 -999 -999 -999 -999
2006-07-26 08:02:57 51°15.552 2°51.403 -999 -999 -999 -999 -999
2006-07-26 08:03:02 51°15.55 2°51.398 -999 -999 -999 -999 -999
2006-07-26 08:03:07 51°15.548 2°51.392 -999 -999 -999 -999 -999
2006-07-26 08:03:12 51°15.546 2°51.387 -999 -999 -999 -999 -999
2006-07-26 08:03:17 51°15.545 2°51.381 -999 -999 -999 -999 -999
2006-07-26 08:03:22 51°15.543 2°51.375 -999 -999 -999 -999 -999
2006-07-26 08:03:27 51°15.541 2°51.369 -999 -999 -999 -999 -999
2006-07-26 08:03:31 51°15.54 2°51.364 -999 -999 -999 -999 -999
2006-07-26 08:03:36 51°15.539 2°51.358 -999 -999 -999 -999 -999
2006-07-26 08:03:42 51°15.537 2°51.35 -999 -999 -999 -999 -999
2006-07-26 08:03:47 51°15.536 2°51.344 -999 -999 -999 -999 -999
2006-07-26 08:03:51 51°15.534 2°51.339 -999 -999 -999 -999 -999
2006-07-26 08:03:57 51°15.533 2°51.331 -999 -999 -999 -999 -999
2006-07-26 08:04:02 51°15.531 2°51.324 -999 -999 -999 -999 -999
2006-07-26 08:04:07 51°15.53 2°51.317 -999 -999 -999 -999 -999
2006-07-26 08:04:12 51°15.529 2°51.31 -999 -999 -999 -999 -999
2006-07-26 08:04:17 51°15.528 2°51.303 -999 -999 -999 -999 -999